sensor_id;sensor_type;location;lat;lon;timestamp;P1;durP1;ratioP1;P2;durP2;ratioP2
41263;SDS011;26998;48.714;9.414;2022-07-10T00:00:50;6.72;;;5.10;;
41263;SDS011;26998;48.714;9.414;2022-07-10T00:03:17;7.57;;;5.57;;
41263;SDS011;26998;48.714;9.414;2022-07-10T00:05:44;5.40;;;4.95;;
41263;SDS011;26998;48.714;9.414;2022-07-10T00:08:11;6.85;;;5.20;;
41263;SDS011;26998;48.714;9.414;2022-07-10T00:10:38;5.18;;;4.72;;
41263;SDS011;26998;48.714;9.414;2022-07-10T00:13:04;5.97;;;5.30;;
41263;SDS011;26998;48.714;9.414;2022-07-10T00:15:31;5.70;;;5.20;;
41263;SDS011;26998;48.714;9.414;2022-07-10T00:17:57;7.18;;;5.13;;
41263;SDS011;26998;48.714;9.414;2022-07-10T00:20:24;5.95;;;5.45;;
41263;SDS011;26998;48.714;9.414;2022-07-10T00:22:51;6.63;;;5.47;;
41263;SDS011;26998;48.714;9.414;2022-07-10T00:25:25;6.22;;;5.63;;
41263;SDS011;26998;48.714;9.414;2022-07-10T00:27:52;5.60;;;5.10;;
41263;SDS011;26998;48.714;9.414;2022-07-10T00:30:22;9.65;;;5.82;;
41263;SDS011;26998;48.714;9.414;2022-07-10T00:32:49;6.10;;;5.50;;
41263;SDS011;26998;48.714;9.414;2022-07-10T00:35:15;5.47;;;4.68;;
41263;SDS011;26998;48.714;9.414;2022-07-10T00:37:42;6.35;;;5.75;;
41263;SDS011;26998;48.714;9.414;2022-07-10T00:40:08;7.55;;;5.50;;
41263;SDS011;26998;48.714;9.414;2022-07-10T00:42:38;5.45;;;4.93;;
41263;SDS011;26998;48.714;9.414;2022-07-10T00:45:05;6.03;;;4.80;;
41263;SDS011;26998;48.714;9.414;2022-07-10T00:47:32;5.78;;;5.18;;
41263;SDS011;26998;48.714;9.414;2022-07-10T00:49:59;6.07;;;4.65;;
41263;SDS011;26998;48.714;9.414;2022-07-10T00:52:26;6.25;;;4.95;;
41263;SDS011;26998;48.714;9.414;2022-07-10T00:54:54;5.13;;;4.72;;
41263;SDS011;26998;48.714;9.414;2022-07-10T00:57:20;5.63;;;5.10;;
41263;SDS011;26998;48.714;9.414;2022-07-10T00:59:48;5.65;;;5.15;;
41263;SDS011;26998;48.714;9.414;2022-07-10T01:02:16;5.90;;;5.10;;
41263;SDS011;26998;48.714;9.414;2022-07-10T01:04:43;6.13;;;5.38;;
41263;SDS011;26998;48.714;9.414;2022-07-10T01:07:09;7.60;;;5.68;;
41263;SDS011;26998;48.714;9.414;2022-07-10T01:09:36;6.65;;;5.95;;
41263;SDS011;26998;48.714;9.414;2022-07-10T01:12:03;8.18;;;5.85;;
41263;SDS011;26998;48.714;9.414;2022-07-10T01:14:31;6.60;;;5.75;;
41263;SDS011;26998;48.714;9.414;2022-07-10T01:16:58;6.03;;;5.53;;
41263;SDS011;26998;48.714;9.414;2022-07-10T01:19:25;6.43;;;5.60;;
41263;SDS011;26998;48.714;9.414;2022-07-10T01:21:52;5.28;;;4.88;;
41263;SDS011;26998;48.714;9.414;2022-07-10T01:24:21;5.13;;;4.63;;
41263;SDS011;26998;48.714;9.414;2022-07-10T01:26:47;6.47;;;5.75;;
41263;SDS011;26998;48.714;9.414;2022-07-10T01:29:14;5.90;;;5.35;;
41263;SDS011;26998;48.714;9.414;2022-07-10T01:31:41;6.30;;;5.70;;
41263;SDS011;26998;48.714;9.414;2022-07-10T01:34:08;5.88;;;5.28;;
41263;SDS011;26998;48.714;9.414;2022-07-10T01:36:36;5.53;;;5.03;;
41263;SDS011;26998;48.714;9.414;2022-07-10T01:39:04;5.80;;;5.30;;
41263;SDS011;26998;48.714;9.414;2022-07-10T01:41:32;6.25;;;5.40;;
41263;SDS011;26998;48.714;9.414;2022-07-10T01:44:00;5.65;;;5.15;;
41263;SDS011;26998;48.714;9.414;2022-07-10T01:46:27;7.10;;;5.35;;
41263;SDS011;26998;48.714;9.414;2022-07-10T01:48:54;7.85;;;5.90;;
41263;SDS011;26998;48.714;9.414;2022-07-10T01:51:21;6.57;;;4.85;;
41263;SDS011;26998;48.714;9.414;2022-07-10T01:53:47;5.55;;;5.05;;
41263;SDS011;26998;48.714;9.414;2022-07-10T01:56:14;8.45;;;4.90;;
41263;SDS011;26998;48.714;9.414;2022-07-10T01:58:42;5.38;;;4.88;;
41263;SDS011;26998;48.714;9.414;2022-07-10T02:01:09;5.68;;;5.03;;
41263;SDS011;26998;48.714;9.414;2022-07-10T02:03:38;5.50;;;5.00;;
41263;SDS011;26998;48.714;9.414;2022-07-10T02:06:05;5.93;;;5.30;;
41263;SDS011;26998;48.714;9.414;2022-07-10T02:08:33;5.82;;;5.22;;
41263;SDS011;26998;48.714;9.414;2022-07-10T02:11:00;6.32;;;5.43;;
41263;SDS011;26998;48.714;9.414;2022-07-10T02:13:26;6.78;;;5.50;;
41263;SDS011;26998;48.714;9.414;2022-07-10T02:15:54;6.28;;;5.65;;
41263;SDS011;26998;48.714;9.414;2022-07-10T02:18:22;7.18;;;5.38;;
41263;SDS011;26998;48.714;9.414;2022-07-10T02:20:49;5.40;;;4.93;;
41263;SDS011;26998;48.714;9.414;2022-07-10T02:23:17;7.30;;;5.50;;
41263;SDS011;26998;48.714;9.414;2022-07-10T02:25:44;6.25;;;5.15;;
41263;SDS011;26998;48.714;9.414;2022-07-10T02:28:13;8.90;;;5.80;;
41263;SDS011;26998;48.714;9.414;2022-07-10T02:30:41;6.13;;;5.53;;
41263;SDS011;26998;48.714;9.414;2022-07-10T02:33:08;6.03;;;5.35;;
41263;SDS011;26998;48.714;9.414;2022-07-10T02:35:35;7.15;;;5.18;;
41263;SDS011;26998;48.714;9.414;2022-07-10T02:38:01;5.75;;;5.25;;
41263;SDS011;26998;48.714;9.414;2022-07-10T02:40:28;8.77;;;5.93;;
41263;SDS011;26998;48.714;9.414;2022-07-10T02:42:56;8.25;;;5.95;;
41263;SDS011;26998;48.714;9.414;2022-07-10T02:45:23;9.50;;;5.50;;
41263;SDS011;26998;48.714;9.414;2022-07-10T02:47:49;7.22;;;5.93;;
41263;SDS011;26998;48.714;9.414;2022-07-10T02:50:16;6.95;;;6.07;;
41263;SDS011;26998;48.714;9.414;2022-07-10T02:52:42;7.45;;;5.30;;
41263;SDS011;26998;48.714;9.414;2022-07-10T02:55:09;6.55;;;5.95;;
41263;SDS011;26998;48.714;9.414;2022-07-10T02:57:35;8.05;;;6.10;;
41263;SDS011;26998;48.714;9.414;2022-07-10T03:00:02;6.53;;;5.93;;
41263;SDS011;26998;48.714;9.414;2022-07-10T03:02:33;7.03;;;6.15;;
41263;SDS011;26998;48.714;9.414;2022-07-10T03:05:00;8.00;;;5.85;;
41263;SDS011;26998;48.714;9.414;2022-07-10T03:07:27;6.63;;;6.03;;
41263;SDS011;26998;48.714;9.414;2022-07-10T03:09:53;6.68;;;6.00;;
41263;SDS011;26998;48.714;9.414;2022-07-10T03:12:19;9.15;;;6.38;;
41263;SDS011;26998;48.714;9.414;2022-07-10T03:14:46;9.38;;;6.45;;
41263;SDS011;26998;48.714;9.414;2022-07-10T03:17:12;6.80;;;6.15;;
41263;SDS011;26998;48.714;9.414;2022-07-10T03:19:39;7.72;;;6.50;;
41263;SDS011;26998;48.714;9.414;2022-07-10T03:22:05;7.32;;;6.45;;
41263;SDS011;26998;48.714;9.414;2022-07-10T03:24:32;7.65;;;6.95;;
41263;SDS011;26998;48.714;9.414;2022-07-10T03:26:58;7.93;;;7.00;;
41263;SDS011;26998;48.714;9.414;2022-07-10T03:29:27;8.45;;;7.35;;
41263;SDS011;26998;48.714;9.414;2022-07-10T03:31:54;8.05;;;6.63;;
41263;SDS011;26998;48.714;9.414;2022-07-10T03:34:21;10.43;;;6.93;;
41263;SDS011;26998;48.714;9.414;2022-07-10T03:36:47;8.88;;;7.93;;
41263;SDS011;26998;48.714;9.414;2022-07-10T03:39:13;7.88;;;7.10;;
41263;SDS011;26998;48.714;9.414;2022-07-10T03:41:40;9.48;;;8.02;;
41263;SDS011;26998;48.714;9.414;2022-07-10T03:44:06;8.35;;;7.47;;
41263;SDS011;26998;48.714;9.414;2022-07-10T03:46:32;7.80;;;7.10;;
41263;SDS011;26998;48.714;9.414;2022-07-10T03:48:59;8.70;;;7.90;;
41263;SDS011;26998;48.714;9.414;2022-07-10T03:51:25;7.63;;;6.97;;
41263;SDS011;26998;48.714;9.414;2022-07-10T03:53:52;12.48;;;8.63;;
41263;SDS011;26998;48.714;9.414;2022-07-10T03:56:18;10.27;;;7.95;;
41263;SDS011;26998;48.714;9.414;2022-07-10T03:58:45;9.65;;;7.63;;
41263;SDS011;26998;48.714;9.414;2022-07-10T04:01:11;9.70;;;7.70;;
41263;SDS011;26998;48.714;9.414;2022-07-10T04:03:40;8.25;;;7.43;;
41263;SDS011;26998;48.714;9.414;2022-07-10T04:06:08;12.40;;;8.80;;
41263;SDS011;26998;48.714;9.414;2022-07-10T04:08:37;8.85;;;7.60;;
41263;SDS011;26998;48.714;9.414;2022-07-10T04:11:03;9.45;;;7.88;;
41263;SDS011;26998;48.714;9.414;2022-07-10T04:13:30;9.10;;;8.05;;
41263;SDS011;26998;48.714;9.414;2022-07-10T04:16:00;10.80;;;8.13;;
41263;SDS011;26998;48.714;9.414;2022-07-10T04:18:29;7.78;;;7.03;;
41263;SDS011;26998;48.714;9.414;2022-07-10T04:20:55;8.45;;;7.53;;
41263;SDS011;26998;48.714;9.414;2022-07-10T04:23:25;9.10;;;7.32;;
41263;SDS011;26998;48.714;9.414;2022-07-10T04:25:51;7.70;;;7.00;;
41263;SDS011;26998;48.714;9.414;2022-07-10T04:28:17;11.40;;;7.90;;
41263;SDS011;26998;48.714;9.414;2022-07-10T04:30:44;10.57;;;7.57;;
41263;SDS011;26998;48.714;9.414;2022-07-10T04:33:11;8.18;;;7.25;;
41263;SDS011;26998;48.714;9.414;2022-07-10T04:35:38;8.85;;;7.40;;
41263;SDS011;26998;48.714;9.414;2022-07-10T04:38:04;8.20;;;7.40;;
41263;SDS011;26998;48.714;9.414;2022-07-10T04:40:31;8.13;;;7.28;;
41263;SDS011;26998;48.714;9.414;2022-07-10T04:42:58;7.53;;;6.75;;
41263;SDS011;26998;48.714;9.414;2022-07-10T04:45:24;8.13;;;7.32;;
41263;SDS011;26998;48.714;9.414;2022-07-10T04:47:51;8.48;;;6.45;;
41263;SDS011;26998;48.714;9.414;2022-07-10T04:50:28;7.82;;;6.30;;
41263;SDS011;26998;48.714;9.414;2022-07-10T04:52:55;10.48;;;6.88;;
41263;SDS011;26998;48.714;9.414;2022-07-10T04:55:23;6.50;;;5.90;;
41263;SDS011;26998;48.714;9.414;2022-07-10T04:57:50;10.38;;;5.93;;
41263;SDS011;26998;48.714;9.414;2022-07-10T05:00:16;9.35;;;6.38;;
41263;SDS011;26998;48.714;9.414;2022-07-10T05:02:45;10.05;;;6.65;;
41263;SDS011;26998;48.714;9.414;2022-07-10T05:05:13;10.20;;;6.50;;
41263;SDS011;26998;48.714;9.414;2022-07-10T05:07:39;7.97;;;7.18;;
41263;SDS011;26998;48.714;9.414;2022-07-10T05:10:06;7.13;;;6.38;;
41263;SDS011;26998;48.714;9.414;2022-07-10T05:12:32;7.80;;;6.68;;
41263;SDS011;26998;48.714;9.414;2022-07-10T05:14:59;9.00;;;7.53;;
41263;SDS011;26998;48.714;9.414;2022-07-10T05:17:25;9.45;;;6.50;;
41263;SDS011;26998;48.714;9.414;2022-07-10T05:19:52;6.45;;;5.85;;
41263;SDS011;26998;48.714;9.414;2022-07-10T05:22:19;7.38;;;5.70;;
41263;SDS011;26998;48.714;9.414;2022-07-10T05:24:45;7.50;;;5.40;;
41263;SDS011;26998;48.714;9.414;2022-07-10T05:27:12;6.95;;;6.20;;
41263;SDS011;26998;48.714;9.414;2022-07-10T05:29:38;5.88;;;5.28;;
41263;SDS011;26998;48.714;9.414;2022-07-10T05:32:05;4.97;;;4.55;;
41263;SDS011;26998;48.714;9.414;2022-07-10T05:34:32;5.05;;;4.47;;
41263;SDS011;26998;48.714;9.414;2022-07-10T05:36:58;5.53;;;4.35;;
41263;SDS011;26998;48.714;9.414;2022-07-10T05:39:25;7.15;;;4.40;;
41263;SDS011;26998;48.714;9.414;2022-07-10T05:41:52;6.07;;;4.47;;
41263;SDS011;26998;48.714;9.414;2022-07-10T05:44:19;4.15;;;3.75;;
41263;SDS011;26998;48.714;9.414;2022-07-10T05:46:46;7.47;;;3.90;;
41263;SDS011;26998;48.714;9.414;2022-07-10T05:49:12;4.38;;;3.67;;
41263;SDS011;26998;48.714;9.414;2022-07-10T05:51:40;5.50;;;3.80;;
41263;SDS011;26998;48.714;9.414;2022-07-10T05:54:10;7.18;;;3.80;;
41263;SDS011;26998;48.714;9.414;2022-07-10T05:56:37;4.35;;;3.65;;
41263;SDS011;26998;48.714;9.414;2022-07-10T05:59:03;7.28;;;3.10;;
41263;SDS011;26998;48.714;9.414;2022-07-10T06:01:31;5.35;;;3.28;;
41263;SDS011;26998;48.714;9.414;2022-07-10T06:03:58;3.38;;;2.90;;
41263;SDS011;26998;48.714;9.414;2022-07-10T06:06:24;8.77;;;3.67;;
41263;SDS011;26998;48.714;9.414;2022-07-10T06:08:51;6.22;;;4.05;;
41263;SDS011;26998;48.714;9.414;2022-07-10T06:11:17;6.43;;;4.00;;
41263;SDS011;26998;48.714;9.414;2022-07-10T06:13:45;5.45;;;4.07;;
41263;SDS011;26998;48.714;9.414;2022-07-10T06:16:12;8.70;;;4.38;;
41263;SDS011;26998;48.714;9.414;2022-07-10T06:18:39;7.10;;;3.80;;
41263;SDS011;26998;48.714;9.414;2022-07-10T06:21:07;7.47;;;3.83;;
41263;SDS011;26998;48.714;9.414;2022-07-10T06:23:33;4.28;;;3.72;;
41263;SDS011;26998;48.714;9.414;2022-07-10T06:26:00;7.80;;;4.15;;
41263;SDS011;26998;48.714;9.414;2022-07-10T06:28:26;7.35;;;3.30;;
41263;SDS011;26998;48.714;9.414;2022-07-10T06:30:55;7.70;;;3.30;;
41263;SDS011;26998;48.714;9.414;2022-07-10T06:33:26;6.03;;;3.55;;
41263;SDS011;26998;48.714;9.414;2022-07-10T06:35:52;6.13;;;3.42;;
41263;SDS011;26998;48.714;9.414;2022-07-10T06:38:19;4.20;;;2.78;;
41263;SDS011;26998;48.714;9.414;2022-07-10T06:40:46;4.15;;;2.67;;
41263;SDS011;26998;48.714;9.414;2022-07-10T06:43:13;4.45;;;2.75;;
41263;SDS011;26998;48.714;9.414;2022-07-10T06:45:40;3.42;;;3.00;;
41263;SDS011;26998;48.714;9.414;2022-07-10T06:48:07;4.70;;;2.35;;
41263;SDS011;26998;48.714;9.414;2022-07-10T06:50:35;4.20;;;2.67;;
41263;SDS011;26998;48.714;9.414;2022-07-10T06:53:02;2.95;;;2.55;;
41263;SDS011;26998;48.714;9.414;2022-07-10T06:55:29;4.93;;;3.08;;
41263;SDS011;26998;48.714;9.414;2022-07-10T06:57:58;5.32;;;2.20;;
41263;SDS011;26998;48.714;9.414;2022-07-10T07:00:25;5.97;;;2.75;;
41263;SDS011;26998;48.714;9.414;2022-07-10T07:02:52;4.20;;;2.63;;
41263;SDS011;26998;48.714;9.414;2022-07-10T07:05:18;3.97;;;2.95;;
41263;SDS011;26998;48.714;9.414;2022-07-10T07:07:45;3.88;;;2.42;;
41263;SDS011;26998;48.714;9.414;2022-07-10T07:10:12;4.05;;;2.50;;
41263;SDS011;26998;48.714;9.414;2022-07-10T07:12:38;3.28;;;2.60;;
41263;SDS011;26998;48.714;9.414;2022-07-10T07:15:06;4.07;;;2.42;;
41263;SDS011;26998;48.714;9.414;2022-07-10T07:17:38;3.80;;;2.60;;
41263;SDS011;26998;48.714;9.414;2022-07-10T07:20:05;3.63;;;2.28;;
41263;SDS011;26998;48.714;9.414;2022-07-10T07:22:32;5.38;;;2.83;;
41263;SDS011;26998;48.714;9.414;2022-07-10T07:24:59;8.02;;;2.80;;
41263;SDS011;26998;48.714;9.414;2022-07-10T07:27:25;3.28;;;2.53;;
41263;SDS011;26998;48.714;9.414;2022-07-10T07:29:52;2.75;;;2.30;;
41263;SDS011;26998;48.714;9.414;2022-07-10T07:32:19;3.15;;;2.40;;
41263;SDS011;26998;48.714;9.414;2022-07-10T07:34:46;3.70;;;1.90;;
41263;SDS011;26998;48.714;9.414;2022-07-10T07:37:12;7.63;;;2.70;;
41263;SDS011;26998;48.714;9.414;2022-07-10T07:39:39;9.15;;;2.65;;
41263;SDS011;26998;48.714;9.414;2022-07-10T07:42:05;3.97;;;1.92;;
41263;SDS011;26998;48.714;9.414;2022-07-10T07:44:31;2.92;;;1.77;;
41263;SDS011;26998;48.714;9.414;2022-07-10T07:46:58;5.35;;;2.10;;
41263;SDS011;26998;48.714;9.414;2022-07-10T07:49:26;2.90;;;1.80;;
41263;SDS011;26998;48.714;9.414;2022-07-10T07:51:55;4.05;;;2.08;;
41263;SDS011;26998;48.714;9.414;2022-07-10T07:54:23;5.03;;;2.05;;
41263;SDS011;26998;48.714;9.414;2022-07-10T07:56:51;3.03;;;1.88;;
41263;SDS011;26998;48.714;9.414;2022-07-10T07:59:17;6.55;;;1.88;;
41263;SDS011;26998;48.714;9.414;2022-07-10T08:01:44;3.60;;;1.80;;
41263;SDS011;26998;48.714;9.414;2022-07-10T08:04:18;2.95;;;2.00;;
41263;SDS011;26998;48.714;9.414;2022-07-10T08:06:47;7.20;;;2.28;;
41263;SDS011;26998;48.714;9.414;2022-07-10T08:09:13;4.38;;;1.95;;
41263;SDS011;26998;48.714;9.414;2022-07-10T08:11:40;4.65;;;2.28;;
41263;SDS011;26998;48.714;9.414;2022-07-10T08:14:07;2.28;;;1.77;;
41263;SDS011;26998;48.714;9.414;2022-07-10T08:16:33;2.97;;;1.90;;
41263;SDS011;26998;48.714;9.414;2022-07-10T08:19:00;4.55;;;2.15;;
41263;SDS011;26998;48.714;9.414;2022-07-10T08:21:26;4.45;;;1.80;;
41263;SDS011;26998;48.714;9.414;2022-07-10T08:23:53;4.80;;;2.10;;
41263;SDS011;26998;48.714;9.414;2022-07-10T08:26:19;3.10;;;1.83;;
41263;SDS011;26998;48.714;9.414;2022-07-10T08:28:46;3.78;;;2.13;;
41263;SDS011;26998;48.714;9.414;2022-07-10T08:31:13;5.03;;;1.90;;
41263;SDS011;26998;48.714;9.414;2022-07-10T08:33:42;3.85;;;2.10;;
41263;SDS011;26998;48.714;9.414;2022-07-10T08:36:09;6.65;;;1.95;;
41263;SDS011;26998;48.714;9.414;2022-07-10T08:38:55;3.42;;;2.08;;
41263;SDS011;26998;48.714;9.414;2022-07-10T08:41:24;3.90;;;1.98;;
41263;SDS011;26998;48.714;9.414;2022-07-10T08:43:51;4.53;;;2.05;;
41263;SDS011;26998;48.714;9.414;2022-07-10T08:46:18;2.55;;;1.60;;
41263;SDS011;26998;48.714;9.414;2022-07-10T08:48:50;7.45;;;2.13;;
41263;SDS011;26998;48.714;9.414;2022-07-10T08:51:24;2.88;;;2.15;;
41263;SDS011;26998;48.714;9.414;2022-07-10T08:54:13;5.80;;;1.98;;
41263;SDS011;26998;48.714;9.414;2022-07-10T08:56:47;2.70;;;1.80;;
41263;SDS011;26998;48.714;9.414;2022-07-10T08:59:14;4.50;;;2.38;;
41263;SDS011;26998;48.714;9.414;2022-07-10T09:01:47;4.78;;;2.05;;
41263;SDS011;26998;48.714;9.414;2022-07-10T09:04:17;4.30;;;2.35;;
41263;SDS011;26998;48.714;9.414;2022-07-10T09:09:11;4.47;;;1.70;;
41263;SDS011;26998;48.714;9.414;2022-07-10T09:11:39;3.08;;;1.65;;
41263;SDS011;26998;48.714;9.414;2022-07-10T09:14:07;2.95;;;1.88;;
41263;SDS011;26998;48.714;9.414;2022-07-10T09:16:58;4.50;;;2.45;;
41263;SDS011;26998;48.714;9.414;2022-07-10T09:19:28;3.80;;;2.10;;
41263;SDS011;26998;48.714;9.414;2022-07-10T09:22:07;3.42;;;2.00;;
41263;SDS011;26998;48.714;9.414;2022-07-10T09:24:35;5.72;;;2.45;;
41263;SDS011;26998;48.714;9.414;2022-07-10T09:27:20;3.60;;;2.05;;
41263;SDS011;26998;48.714;9.414;2022-07-10T09:29:48;3.15;;;1.85;;
41263;SDS011;26998;48.714;9.414;2022-07-10T09:32:17;2.13;;;1.58;;
41263;SDS011;26998;48.714;9.414;2022-07-10T09:34:44;3.03;;;1.65;;
41263;SDS011;26998;48.714;9.414;2022-07-10T09:37:20;3.83;;;2.13;;
41263;SDS011;26998;48.714;9.414;2022-07-10T09:42:30;4.97;;;1.90;;
41263;SDS011;26998;48.714;9.414;2022-07-10T09:47:36;5.53;;;2.03;;
41263;SDS011;26998;48.714;9.414;2022-07-10T09:50:04;2.53;;;1.77;;
41263;SDS011;26998;48.714;9.414;2022-07-10T09:52:46;2.85;;;2.00;;
41263;SDS011;26998;48.714;9.414;2022-07-10T09:55:15;4.28;;;2.00;;
41263;SDS011;26998;48.714;9.414;2022-07-10T09:57:45;2.95;;;2.13;;
41263;SDS011;26998;48.714;9.414;2022-07-10T10:00:17;3.83;;;1.80;;
41263;SDS011;26998;48.714;9.414;2022-07-10T10:02:44;3.90;;;1.70;;
41263;SDS011;26998;48.714;9.414;2022-07-10T10:05:18;6.28;;;2.10;;
41263;SDS011;26998;48.714;9.414;2022-07-10T10:07:45;3.75;;;1.60;;
41263;SDS011;26998;48.714;9.414;2022-07-10T10:10:12;5.97;;;1.88;;
41263;SDS011;26998;48.714;9.414;2022-07-10T10:12:42;2.92;;;1.60;;
41263;SDS011;26998;48.714;9.414;2022-07-10T10:15:14;2.85;;;1.63;;
41263;SDS011;26998;48.714;9.414;2022-07-10T10:17:41;3.15;;;1.50;;
41263;SDS011;26998;48.714;9.414;2022-07-10T10:20:13;2.65;;;1.55;;
41263;SDS011;26998;48.714;9.414;2022-07-10T10:22:40;3.17;;;1.58;;
41263;SDS011;26998;48.714;9.414;2022-07-10T10:25:09;3.63;;;1.25;;
41263;SDS011;26998;48.714;9.414;2022-07-10T10:27:39;3.30;;;1.88;;
41263;SDS011;26998;48.714;9.414;2022-07-10T10:30:06;2.90;;;1.52;;
41263;SDS011;26998;48.714;9.414;2022-07-10T10:32:33;3.47;;;1.60;;
41263;SDS011;26998;48.714;9.414;2022-07-10T10:35:06;7.38;;;4.05;;
41263;SDS011;26998;48.714;9.414;2022-07-10T10:37:33;3.60;;;1.70;;
41263;SDS011;26998;48.714;9.414;2022-07-10T10:40:02;2.50;;;1.52;;
41263;SDS011;26998;48.714;9.414;2022-07-10T10:48:08;2.85;;;1.10;;
41263;SDS011;26998;48.714;9.414;2022-07-10T10:50:56;6.45;;;1.60;;
41263;SDS011;26998;48.714;9.414;2022-07-10T10:53:26;2.25;;;1.30;;
41263;SDS011;26998;48.714;9.414;2022-07-10T11:01:24;2.88;;;1.42;;
41263;SDS011;26998;48.714;9.414;2022-07-10T11:06:47;1.70;;;1.48;;
41263;SDS011;26998;48.714;9.414;2022-07-10T11:12:01;3.97;;;1.33;;
41263;SDS011;26998;48.714;9.414;2022-07-10T11:14:28;1.85;;;1.30;;
41263;SDS011;26998;48.714;9.414;2022-07-10T11:16:55;3.88;;;1.17;;
41263;SDS011;26998;48.714;9.414;2022-07-10T11:19:23;3.75;;;1.15;;
41263;SDS011;26998;48.714;9.414;2022-07-10T11:25:08;5.93;;;1.50;;
41263;SDS011;26998;48.714;9.414;2022-07-10T11:28:06;2.90;;;1.33;;
41263;SDS011;26998;48.714;9.414;2022-07-10T11:33:21;2.03;;;1.23;;
41263;SDS011;26998;48.714;9.414;2022-07-10T11:35:51;4.65;;;1.52;;
41263;SDS011;26998;48.714;9.414;2022-07-10T11:38:22;2.22;;;1.10;;
41263;SDS011;26998;48.714;9.414;2022-07-10T11:40:52;2.40;;;0.95;;
41263;SDS011;26998;48.714;9.414;2022-07-10T11:43:19;6.32;;;1.40;;
41263;SDS011;26998;48.714;9.414;2022-07-10T11:45:46;1.75;;;1.23;;
41263;SDS011;26998;48.714;9.414;2022-07-10T11:48:21;4.55;;;1.55;;
41263;SDS011;26998;48.714;9.414;2022-07-10T11:50:48;1.00;;;0.90;;
41263;SDS011;26998;48.714;9.414;2022-07-10T11:53:25;2.63;;;1.65;;
41263;SDS011;26998;48.714;9.414;2022-07-10T11:55:54;2.05;;;1.13;;
41263;SDS011;26998;48.714;9.414;2022-07-10T11:58:20;2.72;;;1.63;;
41263;SDS011;26998;48.714;9.414;2022-07-10T12:00:57;4.57;;;1.48;;
41263;SDS011;26998;48.714;9.414;2022-07-10T12:03:27;2.40;;;1.10;;
41263;SDS011;26998;48.714;9.414;2022-07-10T12:05:55;1.30;;;1.00;;
41263;SDS011;26998;48.714;9.414;2022-07-10T12:08:29;3.30;;;1.60;;
41263;SDS011;26998;48.714;9.414;2022-07-10T12:10:55;2.20;;;1.13;;
41263;SDS011;26998;48.714;9.414;2022-07-10T12:13:24;2.45;;;1.27;;
41263;SDS011;26998;48.714;9.414;2022-07-10T12:15:50;2.95;;;1.70;;
41263;SDS011;26998;48.714;9.414;2022-07-10T12:18:18;2.53;;;1.42;;
41263;SDS011;26998;48.714;9.414;2022-07-10T12:20:46;1.92;;;1.05;;
41263;SDS011;26998;48.714;9.414;2022-07-10T12:23:14;7.15;;;1.60;;
41263;SDS011;26998;48.714;9.414;2022-07-10T12:25:45;3.13;;;1.40;;
41263;SDS011;26998;48.714;9.414;2022-07-10T12:28:15;4.32;;;1.60;;
41263;SDS011;26998;48.714;9.414;2022-07-10T12:30:45;2.90;;;1.30;;
41263;SDS011;26998;48.714;9.414;2022-07-10T12:33:14;2.92;;;1.33;;
41263;SDS011;26998;48.714;9.414;2022-07-10T12:35:57;4.63;;;1.92;;
41263;SDS011;26998;48.714;9.414;2022-07-10T12:38:25;2.17;;;1.40;;
41263;SDS011;26998;48.714;9.414;2022-07-10T12:41:14;4.38;;;1.30;;
41263;SDS011;26998;48.714;9.414;2022-07-10T12:43:41;5.20;;;1.50;;
41263;SDS011;26998;48.714;9.414;2022-07-10T12:48:41;3.35;;;1.50;;
41263;SDS011;26998;48.714;9.414;2022-07-10T12:51:27;2.95;;;1.30;;
41263;SDS011;26998;48.714;9.414;2022-07-10T12:54:33;4.35;;;1.23;;
41263;SDS011;26998;48.714;9.414;2022-07-10T12:57:04;3.22;;;1.65;;
41263;SDS011;26998;48.714;9.414;2022-07-10T12:59:36;5.00;;;1.52;;
41263;SDS011;26998;48.714;9.414;2022-07-10T13:02:16;1.92;;;1.20;;
41263;SDS011;26998;48.714;9.414;2022-07-10T13:04:54;3.25;;;1.50;;
41263;SDS011;26998;48.714;9.414;2022-07-10T13:07:36;7.53;;;3.10;;
41263;SDS011;26998;48.714;9.414;2022-07-10T13:10:07;2.35;;;1.20;;
41263;SDS011;26998;48.714;9.414;2022-07-10T13:12:34;2.25;;;1.05;;
41263;SDS011;26998;48.714;9.414;2022-07-10T13:15:02;1.67;;;1.10;;
41263;SDS011;26998;48.714;9.414;2022-07-10T13:17:29;2.17;;;1.10;;
41263;SDS011;26998;48.714;9.414;2022-07-10T13:19:58;4.05;;;1.70;;
41263;SDS011;26998;48.714;9.414;2022-07-10T13:22:27;2.72;;;1.23;;
41263;SDS011;26998;48.714;9.414;2022-07-10T13:24:55;3.72;;;1.20;;
41263;SDS011;26998;48.714;9.414;2022-07-10T13:27:21;3.33;;;1.27;;
41263;SDS011;26998;48.714;9.414;2022-07-10T13:29:48;7.97;;;1.90;;
41263;SDS011;26998;48.714;9.414;2022-07-10T13:32:15;2.08;;;1.50;;
41263;SDS011;26998;48.714;9.414;2022-07-10T13:34:41;3.53;;;1.10;;
41263;SDS011;26998;48.714;9.414;2022-07-10T13:37:08;3.72;;;1.02;;
41263;SDS011;26998;48.714;9.414;2022-07-10T13:39:34;3.88;;;1.38;;
41263;SDS011;26998;48.714;9.414;2022-07-10T13:42:03;1.63;;;1.17;;
41263;SDS011;26998;48.714;9.414;2022-07-10T13:44:29;2.30;;;1.00;;
41263;SDS011;26998;48.714;9.414;2022-07-10T13:46:56;3.20;;;1.17;;
41263;SDS011;26998;48.714;9.414;2022-07-10T13:49:23;2.22;;;1.00;;
41263;SDS011;26998;48.714;9.414;2022-07-10T13:51:54;1.27;;;0.80;;
41263;SDS011;26998;48.714;9.414;2022-07-10T13:54:20;1.83;;;1.05;;
41263;SDS011;26998;48.714;9.414;2022-07-10T13:56:49;3.65;;;1.17;;
41263;SDS011;26998;48.714;9.414;2022-07-10T13:59:17;1.38;;;1.00;;
41263;SDS011;26998;48.714;9.414;2022-07-10T14:01:46;2.55;;;1.27;;
41263;SDS011;26998;48.714;9.414;2022-07-10T14:04:13;2.53;;;1.00;;
41263;SDS011;26998;48.714;9.414;2022-07-10T14:06:40;2.25;;;1.02;;
41263;SDS011;26998;48.714;9.414;2022-07-10T14:09:06;4.07;;;1.00;;
41263;SDS011;26998;48.714;9.414;2022-07-10T14:11:34;5.72;;;1.17;;
41263;SDS011;26998;48.714;9.414;2022-07-10T14:14:01;1.73;;;0.93;;
41263;SDS011;26998;48.714;9.414;2022-07-10T14:16:28;2.35;;;1.15;;
41263;SDS011;26998;48.714;9.414;2022-07-10T14:18:54;2.63;;;0.85;;
41263;SDS011;26998;48.714;9.414;2022-07-10T14:21:23;1.48;;;1.08;;
41263;SDS011;26998;48.714;9.414;2022-07-10T14:23:49;2.60;;;1.08;;
41263;SDS011;26998;48.714;9.414;2022-07-10T14:26:16;2.88;;;1.00;;
41263;SDS011;26998;48.714;9.414;2022-07-10T14:28:42;2.35;;;0.95;;
41263;SDS011;26998;48.714;9.414;2022-07-10T14:31:11;1.52;;;0.82;;
41263;SDS011;26998;48.714;9.414;2022-07-10T14:33:38;2.58;;;0.70;;
41263;SDS011;26998;48.714;9.414;2022-07-10T14:36:05;3.33;;;0.95;;
41263;SDS011;26998;48.714;9.414;2022-07-10T14:38:38;2.80;;;0.98;;
41263;SDS011;26998;48.714;9.414;2022-07-10T14:41:07;2.88;;;1.00;;
41263;SDS011;26998;48.714;9.414;2022-07-10T14:43:34;1.38;;;0.80;;
41263;SDS011;26998;48.714;9.414;2022-07-10T14:46:05;3.17;;;0.93;;
41263;SDS011;26998;48.714;9.414;2022-07-10T14:48:34;2.03;;;0.73;;
41263;SDS011;26998;48.714;9.414;2022-07-10T14:51:01;1.63;;;0.98;;
41263;SDS011;26998;48.714;9.414;2022-07-10T14:53:28;1.55;;;0.77;;
41263;SDS011;26998;48.714;9.414;2022-07-10T14:55:54;1.63;;;0.57;;
41263;SDS011;26998;48.714;9.414;2022-07-10T14:58:22;1.67;;;0.95;;
41263;SDS011;26998;48.714;9.414;2022-07-10T15:00:48;5.03;;;1.27;;
41263;SDS011;26998;48.714;9.414;2022-07-10T15:03:14;2.05;;;1.10;;
41263;SDS011;26998;48.714;9.414;2022-07-10T15:05:41;4.45;;;0.93;;
41263;SDS011;26998;48.714;9.414;2022-07-10T15:08:08;1.35;;;0.80;;
41263;SDS011;26998;48.714;9.414;2022-07-10T15:10:35;1.20;;;0.90;;
41263;SDS011;26998;48.714;9.414;2022-07-10T15:13:01;2.15;;;1.00;;
41263;SDS011;26998;48.714;9.414;2022-07-10T15:15:28;2.70;;;0.77;;
41263;SDS011;26998;48.714;9.414;2022-07-10T15:17:55;2.22;;;1.20;;
41263;SDS011;26998;48.714;9.414;2022-07-10T15:20:21;1.42;;;0.80;;
41263;SDS011;26998;48.714;9.414;2022-07-10T15:22:48;1.23;;;0.77;;
41263;SDS011;26998;48.714;9.414;2022-07-10T15:25:15;2.25;;;0.65;;
41263;SDS011;26998;48.714;9.414;2022-07-10T15:27:41;2.17;;;0.80;;